Time;durP1;ratioP1;P1;durP2;ratioP2;P2;SDS_P1;SDS_P2;PMS_P1;PMS_P2;Temp;Humidity;BMP_temperature;BMP_pressure;BME280_temperature;BME280_humidity;BME280_pressure;Samples;Min_cycle;Max_cycle;Signal;HPM_P1;HPM_P2
2022/04/25 00:01:39;;;;;;;8.98;2.28;;;19.90;50.90;;;;;;4353031;32;20081;-66
2022/04/25 00:04:05;;;;;;;8.23;2.50;;;19.80;50.80;;;;;;4353328;32;20131;-66
2022/04/25 00:06:31;;;;;;;6.55;2.35;;;19.80;50.80;;;;;;4353420;32;20553;-67
2022/04/25 00:08:58;;;;;;;4.88;1.98;;;19.80;50.80;;;;;;4351521;32;20130;-66
2022/04/25 00:11:24;;;;;;;6.10;2.17;;;19.80;50.80;;;;;;4353218;32;20701;-66
2022/04/25 00:13:50;;;;;;;4.95;2.40;;;19.80;50.80;;;;;;4350991;32;20503;-67
2022/04/25 00:16:18;;;;;;;8.32;2.35;;;19.80;50.70;;;;;;4348266;32;20107;-67
2022/04/25 00:18:47;;;;;;;5.50;2.28;;;19.80;50.80;;;;;;4352000;32;20076;-66
2022/04/25 00:21:13;;;;;;;5.88;1.70;;;19.80;50.80;;;;;;4340252;32;20234;-66
2022/04/25 00:23:38;;;;;;;5.85;2.05;;;19.80;50.70;;;;;;4353433;32;20163;-66
2022/04/25 00:26:05;;;;;;;4.15;1.88;;;19.80;50.70;;;;;;4353483;32;20179;-66
2022/04/25 00:28:30;;;;;;;5.55;2.13;;;19.80;50.70;;;;;;4353293;32;21065;-66
2022/04/25 00:30:56;;;;;;;9.70;2.40;;;19.80;50.70;;;;;;4348788;32;20080;-66
2022/04/25 00:33:22;;;;;;;5.03;1.73;;;19.80;50.80;;;;;;4352668;32;20414;-66
2022/04/25 00:35:48;;;;;;;5.53;2.55;;;19.70;50.60;;;;;;4353137;32;20068;-66
2022/04/25 00:38:14;;;;;;;6.13;1.88;;;19.70;50.70;;;;;;4353263;32;20490;-66
2022/04/25 00:40:40;;;;;;;3.83;1.70;;;19.80;50.70;;;;;;4353197;32;20083;-66
2022/04/25 00:43:06;;;;;;;7.32;2.17;;;19.70;50.70;;;;;;4349064;32;20130;-67
2022/04/25 00:45:33;;;;;;;7.22;2.05;;;19.70;50.70;;;;;;4353159;32;20244;-66
2022/04/25 00:48:00;;;;;;;4.72;1.88;;;19.70;50.70;;;;;;4349123;32;20214;-66
2022/04/25 00:50:26;;;;;;;4.78;1.52;;;19.70;50.70;;;;;;4352990;32;20697;-67
2022/04/25 00:52:52;;;;;;;6.03;1.88;;;19.70;50.70;;;;;;4345215;32;20127;-66
2022/04/25 00:55:18;;;;;;;3.47;1.80;;;19.70;50.70;;;;;;4353063;32;20060;-66
2022/04/25 00:57:44;;;;;;;3.88;2.00;;;19.70;50.70;;;;;;4353076;32;20083;-66
2022/04/25 01:00:12;;;;;;;3.47;1.50;;;19.70;50.70;;;;;;4352441;32;20072;-67
2022/04/25 01:02:38;;;;;;;5.95;2.25;;;19.60;50.60;;;;;;4352970;32;20692;-66
2022/04/25 01:05:06;;;;;;;4.90;1.70;;;19.60;50.60;;;;;;4339870;32;20223;-66
2022/04/25 01:07:34;;;;;;;3.60;1.70;;;19.60;50.60;;;;;;4352431;32;20134;-66
2022/04/25 01:10:01;;;;;;;5.13;2.22;;;19.60;50.60;;;;;;4352282;32;20068;-67
2022/04/25 01:12:28;;;;;;;4.63;1.77;;;19.60;50.60;;;;;;4352297;32;20593;-66
2022/04/25 01:15:02;;;;;;;3.75;1.90;;;19.60;50.60;;;;;;4352394;33;20084;-66
2022/04/25 01:17:28;;;;;;;5.55;1.88;;;19.60;50.60;;;;;;4337080;33;20116;-66
2022/04/25 01:19:59;;;;;;;4.35;1.65;;;19.60;50.60;;;;;;4348233;33;20084;-66
2022/04/25 01:22:31;;;;;;;3.30;1.65;;;19.60;50.60;;;;;;4352466;33;20417;-66
2022/04/25 01:27:42;;;;;;;4.60;1.77;;;19.60;50.60;;;;;;4355256;32;20127;-66
2022/04/25 01:30:09;;;;;;;4.70;1.80;;;19.50;50.50;;;;;;4355087;32;20084;-66
2022/04/25 01:32:37;;;;;;;6.03;2.08;;;19.50;50.50;;;;;;4353166;32;20095;-66
2022/04/25 01:35:04;;;;;;;4.50;1.65;;;19.50;50.60;;;;;;4355226;32;20329;-66
2022/04/25 01:37:31;;;;;;;4.50;1.63;;;19.50;50.60;;;;;;4355135;32;20087;-66
2022/04/25 01:39:57;;;;;;;3.83;1.50;;;19.50;50.60;;;;;;4354987;32;20388;-66
2022/04/25 01:42:24;;;;;;;3.83;1.50;;;19.50;50.60;;;;;;4351158;32;20123;-66
2022/04/25 01:44:50;;;;;;;4.28;1.55;;;19.50;50.60;;;;;;4355131;32;20069;-66
2022/04/25 01:47:17;;;;;;;4.72;1.55;;;19.50;50.60;;;;;;4354997;32;20091;-66
2022/04/25 01:49:44;;;;;;;4.90;1.75;;;19.50;50.60;;;;;;4337248;33;20096;-66
2022/04/25 01:52:19;;;;;;;4.18;1.75;;;19.50;50.60;;;;;;4351168;32;20179;-66
2022/04/25 01:54:45;;;;;;;2.92;1.40;;;19.50;50.60;;;;;;4355037;32;20123;-66
2022/04/25 01:57:10;;;;;;;4.40;1.55;;;19.50;50.60;;;;;;4354889;32;20229;-66
2022/04/25 01:59:37;;;;;;;3.92;1.80;;;19.50;50.60;;;;;;4355214;32;20064;-67
2022/04/25 02:02:03;;;;;;;3.50;1.60;;;19.50;50.60;;;;;;4356624;32;20290;-66
2022/04/25 02:04:32;;;;;;;2.75;1.60;;;19.40;50.50;;;;;;4356511;32;20396;-66
2022/04/25 02:06:58;;;;;;;3.20;1.58;;;19.40;50.50;;;;;;4356497;32;20205;-66
2022/04/25 02:09:24;;;;;;;2.47;0.90;;;19.40;51.40;;;;;;4356647;32;20135;-66
2022/04/25 02:11:50;;;;;;;4.90;1.65;;;19.40;50.50;;;;;;4356662;32;20223;-66
2022/04/25 02:14:16;;;;;;;4.70;1.73;;;19.40;50.50;;;;;;4356435;32;20064;-66
2022/04/25 02:16:42;;;;;;;3.28;1.60;;;19.40;50.50;;;;;;4356059;32;20262;-66
2022/04/25 02:19:08;;;;;;;2.70;1.60;;;19.40;50.50;;;;;;4356537;32;20225;-66
2022/04/25 02:21:35;;;;;;;3.78;1.60;;;19.40;50.50;;;;;;4356675;32;20084;-66
2022/04/25 02:24:01;;;;;;;2.90;1.45;;;19.40;50.60;;;;;;4356467;32;20064;-66
2022/04/25 02:26:27;;;;;;;3.78;1.52;;;19.40;50.50;;;;;;4343088;32;20206;-66
2022/04/25 02:28:55;;;;;;;2.45;1.23;;;19.40;50.60;;;;;;4356062;32;20480;-66
2022/04/25 02:31:23;;;;;;;4.82;1.88;;;19.40;50.50;;;;;;4355962;32;20172;-66
2022/04/25 02:33:51;;;;;;;2.40;1.58;;;19.40;50.50;;;;;;4356162;32;20092;-66
2022/04/25 02:36:17;;;;;;;2.95;1.52;;;19.40;50.60;;;;;;4355948;32;20590;-66
2022/04/25 02:38:43;;;;;;;3.65;1.40;;;19.30;50.50;;;;;;4356044;32;20100;-66
2022/04/25 02:41:09;;;;;;;3.25;1.52;;;19.40;50.60;;;;;;4342786;32;20094;-66
2022/04/25 02:43:41;;;;;;;3.35;1.60;;;19.30;50.50;;;;;;4355990;32;20387;-66
2022/04/25 02:46:12;;;;;;;2.63;1.25;;;19.30;50.50;;;;;;4356373;32;20122;-66
2022/04/25 02:48:40;;;;;;;5.65;1.60;;;19.30;50.50;;;;;;4355726;32;20092;-66
2022/04/25 02:51:07;;;;;;;3.28;1.38;;;19.30;50.50;;;;;;4330422;32;20102;-66
2022/04/25 02:53:34;;;;;;;3.53;1.55;;;19.30;50.50;;;;;;4355638;32;20199;-66
2022/04/25 02:56:02;;;;;;;2.17;1.40;;;19.30;50.50;;;;;;4355987;32;20171;-66
2022/04/25 02:58:29;;;;;;;2.85;1.40;;;19.30;50.50;;;;;;4355936;32;20064;-67
2022/04/25 03:00:55;;;;;;;2.92;1.27;;;19.30;50.50;;;;;;4355410;32;20217;-66
2022/04/25 03:03:22;;;;;;;3.20;1.70;;;19.30;50.50;;;;;;4355598;32;20123;-67
2022/04/25 03:05:49;;;;;;;3.05;1.40;;;19.30;50.90;;;;;;4342409;32;20119;-66
2022/04/25 03:08:17;;;;;;;3.03;1.70;;;19.30;50.60;;;;;;4355718;32;20082;-66
2022/04/25 03:10:45;;;;;;;2.53;1.33;;;19.30;50.50;;;;;;4355452;32;20222;-66
2022/04/25 03:13:12;;;;;;;2.58;1.27;;;19.30;50.50;;;;;;4355573;32;20095;-66
2022/04/25 03:15:39;;;;;;;2.72;1.50;;;19.30;50.50;;;;;;4355773;32;20490;-66
2022/04/25 03:18:07;;;;;;;1.80;1.05;;;19.30;50.50;;;;;;4355724;32;20080;-66
2022/04/25 03:20:33;;;;;;;2.78;1.67;;;19.20;50.50;;;;;;4355157;32;20099;-66
2022/04/25 03:23:01;;;;;;;1.70;0.98;;;19.20;50.50;;;;;;4355444;32;20518;-66
2022/04/25 03:25:27;;;;;;;3.10;1.30;;;19.30;50.50;;;;;;4342217;32;20694;-66
2022/04/25 03:27:53;;;;;;;2.70;1.08;;;19.20;50.40;;;;;;4341964;32;20080;-66
2022/04/25 03:30:19;;;;;;;1.55;1.10;;;19.20;50.50;;;;;;4341810;32;20095;-66
2022/04/25 03:32:46;;;;;;;3.25;1.40;;;19.20;50.40;;;;;;4355221;32;20090;-66
2022/04/25 03:35:14;;;;;;;3.28;1.60;;;19.20;50.40;;;;;;4355258;32;20120;-66
2022/04/25 03:37:40;;;;;;;3.03;1.25;;;19.20;50.50;;;;;;4354966;32;20533;-66
2022/04/25 03:40:08;;;;;;;2.20;1.35;;;19.20;50.40;;;;;;4342168;32;20095;-66
2022/04/25 03:42:34;;;;;;;2.58;1.42;;;19.20;50.40;;;;;;4355084;32;20080;-66
2022/04/25 03:45:00;;;;;;;2.80;1.40;;;19.20;50.50;;;;;;4355259;32;20060;-66
2022/04/25 03:47:29;;;;;;;3.08;1.40;;;19.20;50.50;;;;;;4354562;32;20590;-66
2022/04/25 03:49:56;;;;;;;2.72;1.33;;;19.20;50.50;;;;;;4354942;32;20080;-66
2022/04/25 03:52:23;;;;;;;1.42;0.98;;;19.20;50.50;;;;;;4341454;32;20202;-66
2022/04/25 03:57:33;;;;;;;1.90;1.20;;;19.10;50.40;;;;;;4355266;32;20096;-66
2022/04/25 03:59:59;;;;;;;2.28;1.35;;;19.10;50.40;;;;;;4341410;32;20060;-66
2022/04/25 04:02:25;;;;;;;1.88;1.08;;;19.10;50.40;;;;;;4354877;32;20091;-66
2022/04/25 04:04:51;;;;;;;1.73;1.13;;;19.10;50.40;;;;;;4355125;32;20072;-66
2022/04/25 04:07:17;;;;;;;3.17;1.60;;;19.10;50.40;;;;;;4354770;32;20087;-66
2022/04/25 04:09:45;;;;;;;1.58;1.02;;;19.10;50.40;;;;;;4355016;32;20140;-66
2022/04/25 04:12:12;;;;;;;1.65;1.20;;;19.10;50.40;;;;;;4341939;32;20080;-66
2022/04/25 04:14:39;;;;;;;1.80;1.10;;;19.10;50.40;;;;;;4354804;32;20103;-66
2022/04/25 04:17:07;;;;;;;2.42;1.50;;;19.10;50.40;;;;;;4354684;32;20098;-66
2022/04/25 04:19:33;;;;;;;3.15;1.33;;;19.10;50.40;;;;;;4354797;32;20132;-66
2022/04/25 04:22:01;;;;;;;2.08;1.13;;;19.10;50.40;;;;;;4354624;32;20076;-66
2022/04/25 04:24:28;;;;;;;3.40;1.42;;;19.10;50.40;;;;;;4354302;32;20084;-66
2022/04/25 04:26:55;;;;;;;2.28;1.40;;;19.10;50.40;;;;;;4354329;32;20422;-66
2022/04/25 04:29:21;;;;;;;2.42;1.30;;;19.10;50.30;;;;;;4354340;32;20182;-66
2022/04/25 04:31:47;;;;;;;3.45;1.52;;;19.10;50.40;;;;;;4341051;32;20399;-67
2022/04/25 04:34:13;;;;;;;2.97;1.20;;;19.10;50.30;;;;;;4354705;32;20092;-65
2022/04/25 04:36:39;;;;;;;1.85;1.08;;;19.10;50.30;;;;;;4354434;32;20372;-66
2022/04/25 04:39:05;;;;;;;2.15;1.35;;;19.10;50.40;;;;;;4354362;32;20159;-66
2022/04/25 04:41:31;;;;;;;2.13;1.10;;;19.10;50.40;;;;;;4354411;32;20159;-66
2022/04/25 04:43:57;;;;;;;3.45;1.38;;;19.00;50.30;;;;;;4354504;32;20223;-67
2022/04/25 04:46:24;;;;;;;2.80;1.08;;;19.00;50.30;;;;;;4354493;32;20502;-66
2022/04/25 04:48:51;;;;;;;2.30;1.15;;;19.00;50.30;;;;;;4354501;32;20103;-67
2022/04/25 04:51:17;;;;;;;1.95;1.23;;;19.00;50.30;;;;;;4340725;32;20072;-66
2022/04/25 04:53:43;;;;;;;1.50;1.00;;;19.00;50.30;;;;;;4354208;32;20119;-67
2022/04/25 04:56:09;;;;;;;2.20;1.08;;;19.00;50.30;;;;;;4353950;32;20084;-67
2022/04/25 04:58:34;;;;;;;2.38;1.13;;;19.00;50.30;;;;;;4354469;32;20167;-66
2022/04/25 05:01:01;;;;;;;3.08;1.20;;;19.00;50.30;;;;;;4339527;32;20108;-66
2022/04/25 05:03:27;;;;;;;1.88;1.10;;;19.00;50.30;;;;;;4353968;32;20218;-66
2022/04/25 05:05:53;;;;;;;3.33;1.30;;;19.00;50.30;;;;;;4340779;32;20123;-67
2022/04/25 05:08:20;;;;;;;1.80;1.23;;;19.00;50.30;;;;;;4353834;32;20143;-66
2022/04/25 05:10:46;;;;;;;2.63;1.10;;;19.00;50.30;;;;;;4354024;32;20205;-66
2022/04/25 05:13:12;;;;;;;1.85;1.20;;;19.00;50.30;;;;;;4340986;32;20709;-67
2022/04/25 05:15:38;;;;;;;1.90;1.20;;;19.00;50.30;;;;;;4354237;32;20076;-67
2022/04/25 05:18:04;;;;;;;2.03;1.08;;;19.00;50.30;;;;;;4340657;33;20064;-67
2022/04/25 05:20:30;;;;;;;1.83;1.10;;;19.00;50.30;;;;;;4354223;33;20060;-67
2022/04/25 05:22:56;;;;;;;2.22;1.02;;;18.90;50.30;;;;;;4354012;33;20399;-66
2022/04/25 05:25:25;;;;;;;2.63;1.00;;;18.90;50.30;;;;;;4354235;33;20466;-66
2022/04/25 05:27:54;;;;;;;1.90;1.15;;;19.00;50.40;;;;;;4353712;33;20163;-65
2022/04/25 05:30:22;;;;;;;1.70;1.00;;;18.90;50.30;;;;;;4353617;33;20088;-66
2022/04/25 05:32:57;;;;;;;2.33;1.00;;;18.90;50.30;;;;;;4353942;33;20387;-66
2022/04/25 05:35:25;;;;;;;1.63;1.10;;;18.90;50.30;;;;;;4353760;33;20171;-66
2022/04/25 05:37:51;;;;;;;1.77;1.10;;;18.90;50.30;;;;;;4353910;33;20429;-65
2022/04/25 05:40:18;;;;;;;1.95;1.08;;;18.90;50.30;;;;;;4354028;33;20094;-66
2022/04/25 05:42:45;;;;;;;1.55;0.88;;;18.90;50.30;;;;;;4328393;33;20076;-66
2022/04/25 05:45:13;;;;;;;2.08;1.00;;;18.90;50.30;;;;;;4354545;33;20105;-67
2022/04/25 05:47:39;;;;;;;2.85;1.10;;;18.90;50.30;;;;;;4353988;33;20167;-66
2022/04/25 05:52:52;;;;;;;1.73;1.05;;;18.90;50.30;;;;;;4353868;33;20091;-67
2022/04/25 05:55:19;;;;;;;1.75;1.00;;;18.80;50.20;;;;;;4353823;33;20135;-66
2022/04/25 05:57:45;;;;;;;1.60;0.95;;;18.90;50.30;;;;;;4353730;33;20279;-66
2022/04/25 06:00:12;;;;;;;1.33;1.00;;;18.90;50.30;;;;;;4340124;33;20222;-66
2022/04/25 06:02:39;;;;;;;1.83;1.20;;;18.90;50.30;;;;;;4353692;33;20153;-66
2022/04/25 06:05:06;;;;;;;1.83;0.93;;;18.90;50.30;;;;;;4353855;33;20131;-66
2022/04/25 06:07:33;;;;;;;2.22;1.00;;;18.80;50.30;;;;;;4353632;33;20095;-66
2022/04/25 06:10:00;;;;;;;1.70;1.10;;;18.80;50.30;;;;;;4353640;33;20227;-66
2022/04/25 06:12:27;;;;;;;1.98;1.10;;;18.80;50.30;;;;;;4355599;32;20087;-66
2022/04/25 06:14:53;;;;;;;2.58;1.08;;;18.80;50.30;;;;;;4356496;32;20668;-66
2022/04/25 06:17:19;;;;;;;1.75;1.08;;;18.80;50.20;;;;;;4354081;32;20088;-66
2022/04/25 06:19:45;;;;;;;2.45;1.20;;;18.80;50.30;;;;;;4340963;32;20088;-66
2022/04/25 06:22:11;;;;;;;2.80;1.30;;;18.80;50.30;;;;;;4337460;32;20085;-66
2022/04/25 06:24:38;;;;;;;2.40;1.15;;;18.80;50.30;;;;;;4354231;32;20076;-66
2022/04/25 06:27:05;;;;;;;1.40;0.95;;;18.80;50.30;;;;;;4354085;32;20076;-66
2022/04/25 06:29:32;;;;;;;1.27;0.95;;;18.80;50.30;;;;;;4353644;32;20088;-66
2022/04/25 06:31:58;;;;;;;1.90;1.08;;;18.80;50.30;;;;;;4352618;32;20195;-66
2022/04/25 06:34:24;;;;;;;2.88;1.00;;;18.80;50.30;;;;;;4352402;32;20379;-67
2022/04/25 06:36:50;;;;;;;1.73;1.00;;;18.80;50.30;;;;;;4342715;32;20081;-66
2022/04/25 06:39:16;;;;;;;3.38;1.30;;;18.80;50.30;;;;;;4356403;32;20155;-66
2022/04/25 06:41:43;;;;;;;2.50;1.13;;;18.80;50.20;;;;;;4356248;32;20656;-66
2022/04/25 06:44:09;;;;;;;1.85;1.52;;;18.80;50.10;;;;;;4330659;32;20087;-66
2022/04/25 06:46:35;;;;;;;3.17;1.55;;;18.80;49.70;;;;;;4342243;32;20078;-66
2022/04/25 06:51:45;;;;;;;2.70;1.20;;;18.80;50.00;;;;;;4356108;32;20083;-66
2022/04/25 06:54:13;;;;;;;4.75;1.20;;;18.80;50.00;;;;;;4329961;32;20211;-66
2022/04/25 06:56:40;;;;;;;4.38;1.40;;;18.80;50.10;;;;;;4342851;32;20092;-66
2022/04/25 06:59:06;;;;;;;6.18;1.35;;;18.80;50.10;;;;;;4342564;32;20641;-66
2022/04/25 07:01:32;;;;;;;3.85;1.42;;;18.80;50.10;;;;;;4355427;32;20064;-66
2022/04/25 07:04:02;;;;;;;3.65;1.20;;;18.80;50.20;;;;;;4355726;32;20422;-66
2022/04/25 07:06:28;;;;;;;2.83;1.40;;;18.80;50.20;;;;;;4355594;32;20099;-66
2022/04/25 07:08:55;;;;;;;4.03;1.55;;;18.70;50.20;;;;;;4342078;32;20084;-66
2022/04/25 07:11:20;;;;;;;2.83;1.42;;;18.80;50.40;;;;;;4355703;32;20084;-66
2022/04/25 07:13:46;;;;;;;1.95;1.15;;;18.80;50.40;;;;;;4355520;32;20104;-65
2022/04/25 07:16:12;;;;;;;2.88;1.30;;;18.80;50.50;;;;;;4341899;32;20072;-66
2022/04/25 07:18:38;;;;;;;2.28;1.15;;;18.80;50.50;;;;;;4353612;32;20099;-65
2022/04/25 07:28:48;;;;;;;3.55;1.15;;;18.80;50.50;;;;;;4352800;32;20203;-66
2022/04/25 07:29:25;;;;;;;3.83;1.15;;;18.80;50.60;;;;;;4353984;32;20107;-66
2022/04/25 07:31:51;;;;;;;3.38;1.15;;;18.80;50.70;;;;;;4354116;32;20068;-66
2022/04/25 07:34:19;;;;;;;3.50;1.48;;;18.80;50.80;;;;;;4354176;32;20068;-66
2022/04/25 07:36:50;;;;;;;3.22;1.58;;;18.80;50.80;;;;;;4354053;32;20095;-66
2022/04/25 07:39:17;;;;;;;3.55;1.20;;;18.90;50.90;;;;;;4353772;32;20426;-66
2022/04/25 07:41:44;;;;;;;2.97;1.33;;;18.90;50.90;;;;;;4353487;32;20562;-66
2022/04/25 07:44:10;;;;;;;2.70;1.30;;;18.90;50.90;;;;;;4353685;32;20180;-66
2022/04/25 07:46:40;;;;;;;3.33;1.20;;;18.90;51.00;;;;;;4353766;32;20513;-66
2022/04/25 07:49:06;;;;;;;2.50;1.30;;;18.90;51.00;;;;;;4353833;32;20080;-66
2022/04/25 07:51:31;;;;;;;4.60;1.17;;;18.90;51.00;;;;;;4353736;32;20071;-66
2022/04/25 07:53:57;;;;;;;2.63;1.13;;;19.00;51.10;;;;;;4349654;32;20156;-66
2022/04/25 07:56:24;;;;;;;2.78;1.10;;;19.00;51.10;;;;;;4352996;32;20186;-66
2022/04/25 07:58:49;;;;;;;2.92;1.20;;;19.00;51.10;;;;;;4353041;32;20084;-66
2022/04/25 08:01:15;;;;;;;4.28;1.20;;;19.00;51.10;;;;;;4339366;32;20064;-66
2022/04/25 08:03:42;;;;;;;3.33;0.98;;;19.00;51.10;;;;;;4353514;32;20115;-66
2022/04/25 08:06:08;;;;;;;4.18;1.30;;;19.00;51.10;;;;;;4354819;32;20100;-67
2022/04/25 08:08:34;;;;;;;2.20;1.13;;;19.10;51.10;;;;;;4354082;32;20127;-66
2022/04/25 08:11:00;;;;;;;3.60;1.20;;;19.10;51.00;;;;;;4325338;33;20112;-66
2022/04/25 08:18:54;;;;;;;2.40;1.30;;;19.10;50.50;;;;;;4325324;33;20503;-66
2022/04/25 08:21:20;;;;;;;2.22;0.93;;;19.20;50.30;;;;;;4325262;33;20480;-66
2022/04/25 08:23:46;;;;;;;3.97;1.63;;;19.20;50.10;;;;;;4324745;33;20068;-66
2022/04/25 08:26:12;;;;;;;2.30;1.20;;;19.20;50.00;;;;;;4325145;33;20080;-66
2022/04/25 08:28:40;;;;;;;5.03;1.30;;;19.30;49.80;;;;;;4324722;33;20423;-66
2022/04/25 08:31:09;;;;;;;5.30;1.58;;;19.30;49.80;;;;;;4324830;33;20514;-66
2022/04/25 08:33:36;;;;;;;3.30;1.40;;;19.30;49.70;;;;;;4324736;33;20080;-66
2022/04/25 08:36:03;;;;;;;3.22;1.70;;;19.30;49.60;;;;;;4324777;33;20085;-66
2022/04/25 08:38:29;;;;;;;4.07;1.33;;;19.40;49.50;;;;;;4311674;33;20171;-66
2022/04/25 08:40:57;;;;;;;4.03;1.48;;;19.40;49.20;;;;;;4324847;33;20080;-66
2022/04/25 08:43:23;;;;;;;4.63;1.80;;;19.40;49.10;;;;;;4324988;33;20515;-66
2022/04/25 08:45:52;;;;;;;5.00;1.50;;;19.40;49.00;;;;;;4324459;33;20181;-66
2022/04/25 08:48:19;;;;;;;5.07;1.45;;;19.40;48.80;;;;;;4324696;33;20081;-66
2022/04/25 08:50:49;;;;;;;4.63;1.55;;;19.40;48.60;;;;;;4324650;33;20515;-66
2022/04/25 08:53:15;;;;;;;3.92;1.77;;;19.50;49.40;;;;;;4324673;33;20081;-66
2022/04/25 08:55:41;;;;;;;3.47;1.50;;;19.50;48.50;;;;;;4324610;33;20081;-66
2022/04/25 08:58:07;;;;;;;2.75;1.13;;;19.40;48.50;;;;;;4324621;33;20163;-66
2022/04/25 09:00:33;;;;;;;4.28;1.73;;;19.40;48.50;;;;;;4338113;32;20242;-66
2022/04/25 09:03:00;;;;;;;2.92;1.20;;;19.40;48.50;;;;;;4352628;32;20493;-66
2022/04/25 09:05:26;;;;;;;3.90;1.63;;;19.40;48.40;;;;;;4354183;32;20640;-66
2022/04/25 09:07:52;;;;;;;2.92;1.67;;;19.40;48.30;;;;;;4353771;32;20131;-66
2022/04/25 09:10:20;;;;;;;3.55;1.30;;;19.40;48.30;;;;;;4339294;32;20286;-65
2022/04/25 09:12:47;;;;;;;3.50;1.55;;;19.40;48.30;;;;;;4352780;32;20125;-66
2022/04/25 09:15:20;;;;;;;6.75;1.52;;;19.40;48.30;;;;;;4350847;32;20156;-66
2022/04/25 09:17:46;;;;;;;3.17;1.67;;;19.40;48.20;;;;;;4351369;33;20080;-66
2022/04/25 09:20:13;;;;;;;3.60;1.27;;;19.40;48.20;;;;;;4353329;33;20072;-65
2022/04/25 09:22:40;;;;;;;2.85;1.40;;;19.30;48.10;;;;;;4352357;33;20086;-66
2022/04/25 09:25:11;;;;;;;1.75;1.33;;;19.40;48.10;;;;;;4352047;33;20086;-66
2022/04/25 09:27:38;;;;;;;3.95;1.30;;;19.30;48.00;;;;;;4352856;33;20395;-65
2022/04/25 09:30:18;;;;;;;1.83;1.30;;;19.30;48.00;;;;;;4351881;33;20135;-65
2022/04/25 09:32:52;;;;;;;4.30;1.45;;;19.30;47.90;;;;;;4351993;33;20068;-66
2022/04/25 09:35:30;;;;;;;3.70;1.80;;;19.30;48.00;;;;;;4349527;33;20384;-65
2022/04/25 09:37:58;;;;;;;5.30;1.20;;;19.30;47.90;;;;;;4352764;33;20076;-65
2022/04/25 09:40:27;;;;;;;6.35;1.85;;;19.40;48.10;;;;;;4351966;33;20479;-65
2022/04/25 09:43:08;;;;;;;4.32;1.63;;;19.30;48.00;;;;;;4352369;33;20099;-66
2022/04/25 09:45:43;;;;;;;5.53;1.73;;;19.30;48.90;;;;;;4352535;32;20485;-66
2022/04/25 09:48:15;;;;;;;6.30;1.75;;;19.30;48.00;;;;;;4355780;32;20673;-65
2022/04/25 09:50:42;;;;;;;6.88;1.42;;;19.30;47.90;;;;;;4340032;32;20222;-66
2022/04/25 09:53:10;;;;;;;3.95;1.60;;;19.30;47.80;;;;;;4356547;32;20095;-66
2022/04/25 09:55:38;;;;;;;8.57;1.98;;;19.40;47.70;;;;;;4356827;32;20490;-65
2022/04/25 09:58:19;;;;;;;5.68;1.85;;;19.40;47.70;;;;;;4356832;32;20273;-65
2022/04/25 10:00:46;;;;;;;5.85;1.65;;;19.40;47.80;;;;;;4355959;32;20084;-66
2022/04/25 10:03:15;;;;;;;3.90;1.70;;;19.40;47.80;;;;;;4356400;32;20094;-65
2022/04/25 10:05:45;;;;;;;5.88;1.95;;;19.40;47.80;;;;;;4356466;32;20076;-65
2022/04/25 10:08:13;;;;;;;4.40;1.55;;;19.40;47.60;;;;;;4356807;32;20079;-65
2022/04/25 10:10:44;;;;;;;4.65;1.42;;;19.40;47.50;;;;;;4356385;32;20083;-65
2022/04/25 10:13:11;;;;;;;4.57;1.60;;;19.40;47.50;;;;;;4356421;32;20068;-65
2022/04/25 10:15:39;;;;;;;5.35;1.70;;;19.50;47.50;;;;;;4356060;32;20541;-65
2022/04/25 10:18:06;;;;;;;4.03;1.30;;;19.50;47.40;;;;;;4356252;32;20072;-65
2022/04/25 10:20:34;;;;;;;5.53;1.27;;;19.50;47.40;;;;;;4343253;32;20430;-66
2022/04/25 10:23:05;;;;;;;4.00;1.33;;;19.50;48.00;;;;;;4341146;33;20100;-66
2022/04/25 10:25:31;;;;;;;6.35;1.40;;;19.60;47.90;;;;;;4341516;33;20096;-65
2022/04/25 10:28:01;;;;;;;5.78;1.70;;;19.60;47.80;;;;;;4341547;33;20091;-65
2022/04/25 10:30:33;;;;;;;5.63;1.50;;;19.60;47.80;;;;;;4340850;33;20131;-65
2022/04/25 10:33:16;;;;;;;5.07;1.50;;;19.60;47.70;;;;;;4341424;33;20088;-65
2022/04/25 10:35:44;;;;;;;4.47;1.20;;;19.60;47.70;;;;;;4341673;33;20514;-65
2022/04/25 10:38:48;;;;;;;3.80;1.58;;;19.60;47.70;;;;;;4340986;33;20080;-65
2022/04/25 10:44:17;;;;;;;3.70;1.77;;;19.60;47.60;;;;;;4352366;32;20354;-66
2022/04/25 10:47:13;;;;;;;3.08;1.23;;;19.70;47.50;;;;;;4352836;32;20230;-65
2022/04/25 10:49:45;;;;;;;1.95;1.33;;;19.70;47.40;;;;;;4352166;32;20430;-66
2022/04/25 10:52:33;;;;;;;5.47;1.55;;;19.70;47.50;;;;;;4355558;32;20552;-66
2022/04/25 10:55:22;;;;;;;4.40;1.60;;;19.70;48.50;;;;;;4352938;32;20518;-66
2022/04/25 10:58:03;;;;;;;5.35;1.90;;;19.70;48.70;;;;;;4353870;32;20088;-66
2022/04/25 11:00:37;;;;;;;5.55;1.90;;;19.80;49.00;;;;;;4350820;32;20176;-65
2022/04/25 11:03:05;;;;;;;6.22;1.92;;;19.80;48.80;;;;;;4339984;33;20080;-65
2022/04/25 11:05:31;;;;;;;5.13;1.48;;;19.80;48.80;;;;;;4340942;33;20087;-65
2022/04/25 11:08:18;;;;;;;5.55;1.85;;;19.80;48.40;;;;;;4341250;33;20065;-66
2022/04/25 11:10:48;;;;;;;6.97;2.05;;;19.80;47.80;;;;;;4339473;33;20259;-66
2022/04/25 11:13:18;;;;;;;6.82;1.65;;;19.80;47.90;;;;;;4340341;33;20152;-66
2022/04/25 11:15:46;;;;;;;5.13;1.70;;;19.80;47.80;;;;;;4340265;33;20266;-66
2022/04/25 11:18:37;;;;;;;5.25;1.70;;;19.80;47.70;;;;;;4338235;33;20092;-66
2022/04/25 11:21:05;;;;;;;6.25;1.83;;;19.80;47.60;;;;;;4340015;33;20529;-66
2022/04/25 11:23:50;;;;;;;8.60;2.17;;;19.80;47.60;;;;;;4339768;33;20107;-66
2022/04/25 11:26:22;;;;;;;4.57;1.75;;;19.80;47.50;;;;;;4339858;33;20088;-66
2022/04/25 11:29:04;;;;;;;6.28;1.48;;;19.80;47.50;;;;;;4339683;33;20095;-66
2022/04/25 11:31:34;;;;;;;5.50;1.52;;;19.80;47.30;;;;;;4339497;33;20167;-66
2022/04/25 11:34:02;;;;;;;5.25;1.73;;;19.80;47.30;;;;;;4339735;33;20434;-66
2022/04/25 11:36:30;;;;;;;8.90;1.45;;;19.80;47.20;;;;;;4339586;33;20088;-66
2022/04/25 11:41:44;;;;;;;4.80;1.60;;;19.80;47.20;;;;;;4339781;33;20511;-66
2022/04/25 11:44:10;;;;;;;7.00;1.60;;;19.80;47.10;;;;;;4339527;33;20092;-66
2022/04/25 11:46:37;;;;;;;3.85;1.80;;;19.80;47.00;;;;;;4339535;33;20095;-66
2022/04/25 11:49:05;;;;;;;5.78;1.30;;;19.80;47.00;;;;;;4326194;33;20084;-66
2022/04/25 11:51:38;;;;;;;4.38;1.50;;;19.80;47.00;;;;;;4339267;33;20192;-67
2022/04/25 11:54:07;;;;;;;5.72;1.55;;;19.80;46.90;;;;;;4339526;33;20215;-67
2022/04/25 11:56:39;;;;;;;4.18;1.50;;;19.80;46.90;;;;;;4337399;33;20130;-66
2022/04/25 11:59:14;;;;;;;3.45;1.42;;;19.80;46.90;;;;;;4339402;33;20128;-66
2022/04/25 12:01:51;;;;;;;7.32;1.55;;;19.90;46.90;;;;;;4341331;32;20143;-67
2022/04/25 12:04:25;;;;;;;6.22;1.50;;;19.90;46.90;;;;;;4350797;32;20076;-67
2022/04/25 12:07:03;;;;;;;5.07;1.60;;;19.90;46.80;;;;;;4354712;32;20087;-67
2022/04/25 12:15:35;;;;;;;6.35;1.50;;;19.90;46.70;;;;;;4355041;32;20108;-66
2022/04/25 12:18:21;;;;;;;8.05;1.60;;;19.90;46.80;;;;;;4354713;32;20080;-65
2022/04/25 12:21:12;;;;;;;6.50;1.50;;;19.90;46.80;;;;;;4354852;32;20482;-66
2022/04/25 12:23:50;;;;;;;6.07;1.77;;;19.90;46.90;;;;;;4354582;32;20102;-66
2022/04/25 12:26:21;;;;;;;5.82;1.40;;;19.90;46.80;;;;;;4354885;32;20210;-66
2022/04/25 12:28:57;;;;;;;3.38;1.38;;;19.90;46.90;;;;;;4354413;32;20139;-66
2022/04/25 12:31:23;;;;;;;4.45;1.40;;;19.90;46.90;;;;;;4354503;32;20083;-66
2022/04/25 12:33:50;;;;;;;4.53;1.60;;;19.90;46.90;;;;;;4354733;32;20099;-66
2022/04/25 12:36:25;;;;;;;5.80;1.50;;;19.90;46.80;;;;;;4354413;32;20084;-66
2022/04/25 12:39:02;;;;;;;4.45;1.48;;;19.90;46.70;;;;;;4354099;32;20091;-66
2022/04/25 12:41:31;;;;;;;3.53;1.60;;;19.90;46.60;;;;;;4354683;32;20083;-66
2022/04/25 12:44:17;;;;;;;6.30;1.75;;;19.90;46.60;;;;;;4354224;32;20100;-66
2022/04/25 12:46:54;;;;;;;4.97;1.30;;;19.80;46.40;;;;;;4354594;32;20372;-66
2022/04/25 12:49:44;;;;;;;3.78;1.55;;;19.90;46.20;;;;;;4354291;32;20068;-66
2022/04/25 12:52:12;;;;;;;3.60;1.40;;;19.90;46.30;;;;;;4354042;32;20076;-66
2022/04/25 12:54:41;;;;;;;3.85;1.30;;;19.90;46.20;;;;;;4340519;32;20096;-66
2022/04/25 12:57:24;;;;;;;4.85;1.52;;;19.90;46.10;;;;;;4354093;32;20087;-66
2022/04/25 12:59:52;;;;;;;6.20;1.40;;;19.90;46.10;;;;;;4353930;32;20175;-66
2022/04/25 13:02:32;;;;;;;3.65;1.40;;;19.90;46.10;;;;;;4339311;32;20162;-66
2022/04/25 13:05:00;;;;;;;5.32;1.70;;;19.90;45.90;;;;;;4353037;32;20487;-67
2022/04/25 13:07:32;;;;;;;3.72;1.50;;;19.90;46.00;;;;;;4352469;32;20528;-67
2022/04/25 13:10:00;;;;;;;3.38;1.60;;;19.90;46.00;;;;;;4354283;32;20103;-67
2022/04/25 13:12:33;;;;;;;3.33;1.40;;;19.90;46.00;;;;;;4354180;32;20080;-67
2022/04/25 13:15:00;;;;;;;4.32;1.70;;;19.80;45.90;;;;;;4354201;32;20182;-67
2022/04/25 13:17:26;;;;;;;5.63;1.65;;;19.90;46.00;;;;;;4353903;32;20079;-67
2022/04/25 13:19:52;;;;;;;8.10;1.50;;;19.90;45.90;;;;;;4353850;32;20375;-67
2022/04/25 13:22:17;;;;;;;3.38;1.30;;;19.80;46.10;;;;;;4353405;33;20060;-67
2022/04/25 13:24:47;;;;;;;4.65;1.75;;;19.80;46.20;;;;;;4353743;33;20076;-67
2022/04/25 13:27:13;;;;;;;4.82;1.20;;;19.80;46.20;;;;;;4352814;33;20092;-67
2022/04/25 13:29:39;;;;;;;5.68;1.40;;;19.80;46.40;;;;;;4352163;33;20092;-68